createdAt,value
2023-02-12T00:01:02.471Z,100992.06
2023-02-12T00:02:34.791Z,100982.63
2023-02-12T00:04:06.991Z,100982.09
2023-02-12T00:05:39.974Z,100983.66
2023-02-12T00:07:12.058Z,100987.88
2023-02-12T00:08:44.387Z,100988.72
2023-02-12T00:10:16.497Z,100988.63
2023-02-12T00:11:48.670Z,100983.31
2023-02-12T00:13:20.964Z,100994.03
2023-02-12T00:14:53.004Z,100988.22
2023-02-12T00:16:31.357Z,100993.63
2023-02-12T00:18:03.536Z,100997.75
2023-02-12T00:19:35.733Z,101003.31
2023-02-12T00:21:11.613Z,101000.06
2023-02-12T00:22:43.724Z,100994.16
2023-02-12T00:24:15.882Z,100983.91
2023-02-12T00:25:48.002Z,100985.34
2023-02-12T00:27:20.056Z,100985.06
2023-02-12T00:28:52.739Z,100985.34
2023-02-12T00:30:24.909Z,100981.84
2023-02-12T00:31:57.184Z,100975.00
2023-02-12T00:33:29.281Z,100984.38
2023-02-12T00:35:01.423Z,100984.38
2023-02-12T00:36:33.763Z,100975.00
2023-02-12T00:38:05.874Z,100979.41
2023-02-12T00:39:38.435Z,100974.25
2023-02-12T00:41:13.759Z,100985.50
2023-02-12T00:42:45.911Z,100993.88
2023-02-12T00:44:18.074Z,100971.63
2023-02-12T00:45:50.316Z,100969.78
2023-02-12T00:47:22.594Z,100978.44
2023-02-12T00:48:54.792Z,100985.44
2023-02-12T00:50:27.665Z,100971.00
2023-02-12T00:52:02.256Z,100979.81
2023-02-12T00:53:34.875Z,100978.19
2023-02-12T00:55:07.021Z,100969.03
2023-02-12T00:56:38.977Z,100985.78
2023-02-12T00:58:11.157Z,100984.13
2023-02-12T00:59:43.221Z,100972.41
2023-02-12T01:01:15.259Z,100973.38
2023-02-12T01:02:47.261Z,100978.50
2023-02-12T01:04:19.531Z,100979.16
2023-02-12T01:05:52.117Z,100968.31
2023-02-12T01:07:25.329Z,100970.28
2023-02-12T01:08:57.353Z,100956.97
2023-02-12T01:10:29.474Z,100972.16
2023-02-12T01:12:04.890Z,100965.56
2023-02-12T01:13:36.896Z,100957.72
2023-02-12T01:15:10.780Z,100957.91
2023-02-12T01:16:42.922Z,100957.13
2023-02-12T01:18:16.475Z,100961.47
2023-02-12T01:19:48.264Z,100952.84
2023-02-12T01:21:23.169Z,100940.69
2023-02-12T01:22:55.200Z,100958.50
2023-02-12T01:24:27.198Z,100947.53
2023-02-12T01:25:59.196Z,100951.00
2023-02-12T01:27:31.243Z,100954.50
2023-02-12T01:29:07.345Z,100943.81
2023-02-12T01:30:39.374Z,100939.31
2023-02-12T01:32:12.177Z,100953.88
2023-02-12T01:33:44.558Z,100940.25
2023-02-12T01:35:16.571Z,100943.47
2023-02-12T01:36:48.606Z,100948.63
2023-02-12T01:38:20.862Z,100950.31
2023-02-12T01:39:53.025Z,100937.38
2023-02-12T01:41:28.450Z,100949.50
2023-02-12T01:43:03.897Z,100938.41
2023-02-12T01:44:37.391Z,100928.75
2023-02-12T01:46:10.591Z,100931.69
2023-02-12T01:47:44.557Z,100933.97
2023-02-12T01:49:25.240Z,100935.97
2023-02-12T01:50:58.608Z,100939.13
2023-02-12T01:52:33.599Z,100940.94
2023-02-12T01:54:08.515Z,100942.44
2023-02-12T01:55:41.160Z,100943.84
2023-02-12T01:57:14.667Z,100936.44
2023-02-12T01:58:47.104Z,100940.06
2023-02-12T02:00:25.163Z,100941.56
2023-02-12T02:01:57.286Z,100944.78
2023-02-12T02:03:29.567Z,100954.16
2023-02-12T02:05:04.624Z,100936.69
2023-02-12T02:06:40.661Z,100944.03
2023-02-12T02:08:13.111Z,100942.16
2023-02-12T02:09:45.240Z,100939.56
2023-02-12T02:11:35.729Z,100942.78
2023-02-12T02:13:26.316Z,100938.78
2023-02-12T02:15:00.353Z,100939.91
2023-02-12T02:16:35.535Z,100938.34
2023-02-12T02:18:09.409Z,100948.28
2023-02-12T02:20:02.855Z,100943.75
2023-02-12T02:21:51.725Z,100940.25
2023-02-12T02:23:23.662Z,100951.06
2023-02-12T02:25:32.789Z,100940.59
2023-02-12T02:27:43.056Z,100954.13
2023-02-12T02:29:21.854Z,100949.78
2023-02-12T02:31:01.271Z,100952.38
2023-02-12T02:32:58.070Z,100942.22
2023-02-12T02:34:41.430Z,100942.78
2023-02-12T02:36:26.121Z,100951.34
2023-02-12T02:38:21.638Z,100955.84
2023-02-12T02:40:00.422Z,100954.91
2023-02-12T02:42:11.117Z,100950.53
2023-02-12T02:43:51.445Z,100948.00
2023-02-12T02:45:34.140Z,100958.16
2023-02-12T02:47:09.310Z,100947.91
2023-02-12T02:49:02.746Z,100946.34
2023-02-12T02:50:36.917Z,100952.22
2023-02-12T02:52:13.098Z,100945.56
2023-02-12T02:54:08.154Z,100949.94
2023-02-12T02:55:44.787Z,100938.56
2023-02-12T02:57:36.276Z,100937.75
2023-02-12T02:59:13.671Z,100928.66
2023-02-12T03:00:52.367Z,100927.19
2023-02-12T03:02:31.852Z,100938.34
2023-02-12T03:04:09.505Z,100935.88
2023-02-12T03:05:47.934Z,100940.94
2023-02-12T03:07:33.297Z,100942.53
2023-02-12T03:09:12.972Z,100938.34
2023-02-12T03:10:47.721Z,100940.91
2023-02-12T03:12:26.348Z,100938.34
2023-02-12T03:14:13.521Z,100945.97
2023-02-12T03:15:50.179Z,100950.94
2023-02-12T03:17:28.503Z,100946.97
2023-02-12T03:19:25.936Z,100955.72
2023-02-12T03:21:06.058Z,100942.25
2023-02-12T03:22:41.328Z,100941.47
2023-02-12T03:24:33.574Z,100934.88
2023-02-12T03:26:09.288Z,100945.81
2023-02-12T03:27:57.132Z,100943.44
2023-02-12T03:29:29.331Z,100948.44
2023-02-12T03:31:16.793Z,100942.91
2023-02-12T03:33:07.451Z,100948.16
2023-02-12T03:34:50.960Z,100936.66
2023-02-12T03:36:32.440Z,100948.63
2023-02-12T03:38:23.313Z,100947.22
2023-02-12T03:40:19.307Z,100941.53
2023-02-12T03:42:07.401Z,100940.00
2023-02-12T03:44:02.853Z,100942.75
2023-02-12T03:45:49.804Z,100937.88
2023-02-12T03:47:32.287Z,100948.09
2023-02-12T03:49:46.877Z,100944.94
2023-02-12T03:51:40.321Z,100942.63
2023-02-12T03:53:12.688Z,100945.78
2023-02-12T03:54:44.797Z,100940.00
2023-02-12T03:56:20.841Z,100936.06
2023-02-12T03:57:59.891Z,100945.41
2023-02-12T03:59:32.043Z,100938.59
2023-02-12T04:01:04.349Z,100945.56
2023-02-12T04:02:37.000Z,100944.66
2023-02-12T04:04:10.327Z,100942.44
2023-02-12T04:05:42.340Z,100940.63
2023-02-12T04:07:14.843Z,100951.88
2023-02-12T04:08:46.881Z,100946.88
2023-02-12T04:10:22.409Z,100948.06
2023-02-12T04:12:16.311Z,100948.38
2023-02-12T04:14:19.185Z,100942.34
2023-02-12T04:16:04.497Z,100950.22
2023-02-12T04:17:47.940Z,100945.28
2023-02-12T04:19:33.895Z,100945.47
2023-02-12T04:21:08.928Z,100947.28
2023-02-12T04:23:05.344Z,100953.38
2023-02-12T04:24:45.439Z,100948.22
2023-02-12T04:26:29.350Z,100953.38
2023-02-12T04:28:12.090Z,100947.34
2023-02-12T04:30:00.919Z,100945.81
2023-02-12T04:31:59.574Z,100948.56
2023-02-12T04:33:38.713Z,100958.91
2023-02-12T04:35:16.630Z,100963.91
2023-02-12T04:37:18.438Z,100953.31
2023-02-12T04:39:02.733Z,100963.47
2023-02-12T04:40:35.370Z,100958.34
2023-02-12T04:42:07.951Z,100961.84
2023-02-12T04:43:40.162Z,100954.22
2023-02-12T04:45:13.784Z,100953.56
2023-02-12T04:46:45.618Z,100960.69
2023-02-12T04:48:17.686Z,100963.94
2023-02-12T04:49:49.744Z,100965.66
2023-02-12T04:51:21.840Z,100967.44
2023-02-12T04:52:53.922Z,100969.16
2023-02-12T04:54:26.015Z,100960.69
2023-02-12T04:55:58.370Z,100967.50
2023-02-12T04:57:30.636Z,100969.16
2023-02-12T04:59:02.728Z,100973.59
2023-02-12T05:00:36.166Z,100974.72
2023-02-12T05:02:08.486Z,100976.34
2023-02-12T05:03:40.694Z,100977.25
2023-02-12T05:05:12.748Z,100976.53
2023-02-12T05:06:45.766Z,100977.38
2023-02-12T05:08:17.746Z,100978.19
2023-02-12T05:09:49.735Z,100976.59
2023-02-12T05:11:21.780Z,100985.22
2023-02-12T05:12:54.909Z,100985.47
2023-02-12T05:14:26.945Z,100974.41
2023-02-12T05:15:59.172Z,100981.16
2023-02-12T05:17:31.419Z,100975.34
2023-02-12T05:19:03.521Z,100983.06
2023-02-12T05:20:35.579Z,100973.72
2023-02-12T05:22:07.655Z,100978.84
2023-02-12T05:23:40.491Z,100974.00
2023-02-12T05:25:12.525Z,100987.56
2023-02-12T05:26:44.727Z,100984.19
2023-02-12T05:28:16.849Z,100975.81
2023-02-12T05:29:48.944Z,100971.75
2023-02-12T05:31:21.879Z,100980.31
2023-02-12T05:32:54.097Z,100980.31
2023-02-12T05:34:26.108Z,100980.31
2023-02-12T05:36:07.391Z,100984.09
2023-02-12T05:37:39.561Z,100977.84
2023-02-12T05:39:11.852Z,100987.28
2023-02-12T05:40:44.022Z,100976.25
2023-02-12T05:42:16.054Z,100991.78
2023-02-12T05:43:49.828Z,100988.50
2023-02-12T05:45:22.108Z,100987.72
2023-02-12T05:46:54.216Z,100987.72
2023-02-12T05:48:26.723Z,100987.84
2023-02-12T05:49:58.814Z,101001.59
2023-02-12T05:51:32.502Z,100995.78
2023-02-12T05:53:04.679Z,101006.03
2023-02-12T05:54:36.830Z,101005.16
2023-02-12T05:56:25.287Z,101008.78
2023-02-12T05:57:57.376Z,101006.31
2023-02-12T05:59:29.492Z,101008.13
2023-02-12T06:01:01.576Z,101006.44
2023-02-12T06:02:36.288Z,101005.09
2023-02-12T06:04:14.560Z,101012.84
2023-02-12T06:05:51.466Z,101012.06
2023-02-12T06:07:23.759Z,101011.97
2023-02-12T06:08:56.392Z,101014.72
2023-02-12T06:10:28.602Z,101017.28
2023-02-12T06:12:00.734Z,101019.16
2023-02-12T06:13:33.552Z,101016.91
2023-02-12T06:15:05.885Z,101015.31
2023-02-12T06:16:38.118Z,101021.19
2023-02-12T06:18:10.250Z,101016.03
2023-02-12T06:19:42.444Z,101017.75
2023-02-12T06:21:14.776Z,101025.56
2023-02-12T06:22:46.866Z,101021.41
2023-02-12T06:24:19.293Z,101018.94
2023-02-12T06:25:52.145Z,101026.69
2023-02-12T06:27:24.212Z,101020.88
2023-02-12T06:28:56.360Z,101019.84
2023-02-12T06:30:28.394Z,101026.81
2023-02-12T06:32:00.493Z,101023.56
2023-02-12T06:33:33.308Z,101019.44
2023-02-12T06:35:05.946Z,101029.81
2023-02-12T06:36:39.497Z,101030.81
2023-02-12T06:38:11.381Z,101037.06
2023-02-12T06:39:43.411Z,101028.28
2023-02-12T06:41:15.892Z,101028.31
2023-02-12T06:42:50.152Z,101029.44
2023-02-12T06:44:22.533Z,101023.53
2023-02-12T06:45:54.888Z,101016.91
2023-02-12T06:47:28.113Z,101033.97
2023-02-12T06:49:01.635Z,101035.84
2023-02-12T06:50:33.647Z,101034.41
2023-02-12T06:52:05.809Z,101037.63
2023-02-12T06:53:38.411Z,101037.88
2023-02-12T06:55:10.467Z,101040.44
2023-02-12T06:56:42.870Z,101036.28
2023-02-12T06:58:15.005Z,101044.78
2023-02-12T06:59:47.291Z,101042.34
2023-02-12T07:01:22.131Z,101044.47
2023-02-12T07:02:59.919Z,101044.78
2023-02-12T07:04:32.127Z,101051.56
2023-02-12T07:06:04.565Z,101054.50
2023-02-12T07:07:36.944Z,101060.59
2023-02-12T07:09:09.212Z,101045.50
2023-02-12T07:10:41.277Z,101058.50
2023-02-12T07:12:13.400Z,101060.38
2023-02-12T07:13:45.918Z,101063.28
2023-02-12T07:15:18.144Z,101066.00
2023-02-12T07:16:50.265Z,101074.78
2023-02-12T07:18:22.437Z,101079.28
2023-02-12T07:19:54.424Z,101077.84
2023-02-12T07:21:26.513Z,101078.25
2023-02-12T07:22:58.548Z,101081.91
2023-02-12T07:24:30.950Z,101085.56
2023-02-12T07:26:11.676Z,101085.22
2023-02-12T07:27:43.823Z,101083.59
2023-02-12T07:29:16.508Z,101083.84
2023-02-12T07:30:48.516Z,101083.19
2023-02-12T07:32:20.816Z,101083.41
2023-02-12T07:33:57.782Z,101091.50
2023-02-12T07:35:29.850Z,101090.66
2023-02-12T07:37:01.901Z,101098.53
2023-02-12T07:38:36.445Z,101092.69
2023-02-12T07:40:09.353Z,101092.00
2023-02-12T07:41:41.424Z,101091.28
2023-02-12T07:43:13.590Z,101086.34
2023-02-12T07:44:46.059Z,101089.00
2023-02-12T07:46:21.103Z,101096.91
2023-02-12T07:47:53.386Z,101095.19
2023-02-12T07:49:25.506Z,101097.13
2023-02-12T07:51:00.585Z,101096.44
2023-02-12T07:52:32.643Z,101095.69
2023-02-12T07:54:04.995Z,101096.81
2023-02-12T07:55:37.048Z,101098.66
2023-02-12T07:57:09.032Z,101097.91
2023-02-12T07:58:42.334Z,101090.47
2023-02-12T08:00:15.207Z,101094.94
2023-02-12T08:01:52.283Z,101096.06
2023-02-12T08:03:24.363Z,101093.34
2023-02-12T08:04:57.738Z,101105.56
2023-02-12T08:06:32.938Z,101093.72
2023-02-12T08:08:05.114Z,101091.19
2023-02-12T08:09:39.698Z,101095.78
2023-02-12T08:11:13.407Z,101094.88
2023-02-12T08:12:45.587Z,101099.28
2023-02-12T08:14:19.726Z,101098.72
2023-02-12T08:16:00.546Z,101097.25
2023-02-12T08:17:32.767Z,101098.97
2023-02-12T08:19:16.948Z,101104.25
2023-02-12T08:20:51.168Z,101108.53
2023-02-12T08:22:23.274Z,101100.00
2023-02-12T08:23:56.941Z,101107.03
2023-02-12T08:25:29.046Z,101104.56
2023-02-12T08:27:01.115Z,101106.47
2023-02-12T08:28:33.399Z,101105.78
2023-02-12T08:30:05.788Z,101112.94
2023-02-12T08:31:43.186Z,101112.44
2023-02-12T08:33:15.356Z,101116.66
2023-02-12T08:34:47.524Z,101124.47
2023-02-12T08:36:24.164Z,101123.88
2023-02-12T08:37:56.303Z,101134.19
2023-02-12T08:39:30.039Z,101134.41
2023-02-12T08:41:04.016Z,101141.34
2023-02-12T08:42:36.235Z,101138.09
2023-02-12T08:44:08.864Z,101141.97
2023-02-12T08:45:41.158Z,101143.22
2023-02-12T08:47:13.277Z,101144.41
2023-02-12T08:48:46.018Z,101148.22
2023-02-12T08:50:18.325Z,101151.72
2023-02-12T08:51:52.642Z,101151.97
2023-02-12T08:53:25.160Z,101147.81
2023-02-12T08:54:57.377Z,101152.19
2023-02-12T08:56:31.378Z,101154.97
2023-02-12T08:58:04.143Z,101153.38
2023-02-12T08:59:36.324Z,101161.38
2023-02-12T09:01:14.031Z,101160.78
2023-02-12T09:02:49.012Z,101156.81
2023-02-12T09:04:27.126Z,101164.72
2023-02-12T09:05:59.285Z,101173.34
2023-02-12T09:07:32.491Z,101168.38
2023-02-12T09:09:04.602Z,101172.66
2023-02-12T09:10:41.159Z,101171.16
2023-02-12T09:12:13.284Z,101178.84
2023-02-12T09:13:46.931Z,101173.88
2023-02-12T09:15:18.761Z,101176.44
2023-02-12T09:16:53.316Z,101181.38
2023-02-12T09:18:25.524Z,101188.47
2023-02-12T09:19:57.937Z,101192.00
2023-02-12T09:21:30.395Z,101191.88
2023-02-12T09:24:41.322Z,101191.16
2023-02-12T09:26:15.779Z,101193.88
2023-02-12T09:27:47.882Z,101195.31
2023-02-12T09:29:19.968Z,101190.25
2023-02-12T09:30:52.205Z,101190.34
2023-02-12T09:32:24.368Z,101195.31
2023-02-12T09:34:00.268Z,101192.00
2023-02-12T09:35:35.437Z,101191.78
2023-02-12T09:37:07.594Z,101195.88
2023-02-12T09:38:40.055Z,101198.53
2023-02-12T09:40:45.399Z,101192.84
2023-02-12T09:42:56.018Z,101193.81
2023-02-12T09:44:37.252Z,101199.03
2023-02-12T09:46:19.809Z,101197.31
2023-02-12T09:47:54.845Z,101205.00
2023-02-12T09:49:33.098Z,101200.03
2023-02-12T09:51:08.133Z,101206.81
2023-02-12T09:54:22.569Z,101211.16
2023-02-12T09:55:55.433Z,101209.28
2023-02-12T09:57:38.114Z,101215.38
2023-02-12T09:59:10.295Z,101209.28
2023-02-12T10:00:42.403Z,101218.72
2023-02-12T10:02:19.233Z,101223.06
2023-02-12T10:03:52.475Z,101212.72
2023-02-12T10:05:39.324Z,101207.56
2023-02-12T10:07:32.187Z,101218.00
2023-02-12T10:09:25.968Z,101211.09
2023-02-12T10:11:04.655Z,101209.28
2023-02-12T10:13:05.849Z,101210.88
2023-02-12T10:14:44.861Z,101209.22
2023-02-12T10:16:45.704Z,101210.31
2023-02-12T10:18:33.310Z,101207.75
2023-02-12T10:20:17.305Z,101211.19
2023-02-12T10:23:25.234Z,101218.88
2023-02-12T10:25:17.395Z,101221.59
2023-02-12T10:26:56.752Z,101221.59
2023-02-12T10:28:43.565Z,101225.09
2023-02-12T10:30:25.371Z,101226.78
2023-02-12T10:32:12.235Z,101220.69
2023-02-12T10:33:50.111Z,101222.53
2023-02-12T10:35:23.633Z,101225.94
2023-02-12T10:37:02.892Z,101225.09
2023-02-12T10:38:37.979Z,101227.75
2023-02-12T10:40:30.417Z,101229.41
2023-02-12T10:42:13.606Z,101222.75
2023-02-12T10:43:45.852Z,101220.00
2023-02-12T10:45:21.904Z,101224.41
2023-02-12T10:46:54.157Z,101226.06
2023-02-12T10:48:39.563Z,101225.25
2023-02-12T10:50:21.373Z,101228.78
2023-02-12T10:51:53.335Z,101222.69
2023-02-12T10:53:30.503Z,101227.03
2023-02-12T10:55:02.658Z,101228.72
2023-02-12T10:56:37.511Z,101226.28
2023-02-12T10:58:20.900Z,101228.00
2023-02-12T10:59:54.922Z,101227.94
2023-02-12T11:01:28.880Z,101233.13
2023-02-12T11:03:05.805Z,101225.41
2023-02-12T11:04:38.111Z,101233.88
2023-02-12T11:06:16.782Z,101236.72
2023-02-12T11:07:50.695Z,101234.22
2023-02-12T11:09:29.838Z,101236.78
2023-02-12T11:11:08.984Z,101239.28
2023-02-12T11:12:48.438Z,101236.78
2023-02-12T11:14:22.125Z,101229.13
2023-02-12T11:15:55.238Z,101232.59
2023-02-12T11:17:34.526Z,101239.56
2023-02-12T11:19:08.528Z,101236.16
2023-02-12T11:22:26.114Z,101236.13
2023-02-12T11:23:58.539Z,101239.84
2023-02-12T11:25:36.248Z,101234.81
2023-02-12T11:27:17.213Z,101242.69
2023-02-12T11:28:57.571Z,101249.25
2023-02-12T11:30:30.290Z,101245.69
2023-02-12T11:32:05.693Z,101247.38
2023-02-12T11:33:39.338Z,101242.94
2023-02-12T11:35:15.874Z,101242.94
2023-02-12T11:36:50.812Z,101233.13
2023-02-12T11:38:32.195Z,101235.84
2023-02-12T11:40:05.167Z,101240.09
2023-02-12T11:41:39.717Z,101242.66
2023-02-12T11:43:17.696Z,101235.91
2023-02-12T11:44:59.926Z,101239.97
2023-02-12T11:46:32.124Z,101239.56
2023-02-12T11:48:21.697Z,101230.44
2023-02-12T11:52:00.877Z,101245.50
2023-02-12T11:53:35.549Z,101240.44
2023-02-12T11:55:21.741Z,101241.06
2023-02-12T11:56:55.765Z,101234.97
2023-02-12T11:58:28.747Z,101240.44
2023-02-12T12:00:05.372Z,101232.13
2023-02-12T12:01:38.951Z,101235.88
2023-02-12T12:03:19.791Z,101238.72
2023-02-12T12:04:55.653Z,101234.44
2023-02-12T12:06:50.390Z,101242.53
2023-02-12T12:08:27.572Z,101243.69
2023-02-12T12:10:06.837Z,101240.50
2023-02-12T12:12:03.536Z,101240.16
2023-02-12T12:13:43.953Z,101239.13
2023-02-12T12:15:48.766Z,101242.50
2023-02-12T12:17:43.281Z,101241.72
2023-02-12T12:22:10.743Z,101246.84
2023-02-12T12:23:46.881Z,101248.75
2023-02-12T12:25:44.515Z,101247.22
2023-02-12T12:28:08.597Z,101254.19
2023-02-12T12:29:51.869Z,101253.66
2023-02-12T12:31:46.818Z,101253.78
2023-02-12T12:33:42.159Z,101261.41
2023-02-12T12:35:16.421Z,101256.28
2023-02-12T12:37:16.209Z,101255.59
2023-02-12T12:38:48.181Z,101257.16
2023-02-12T12:40:34.067Z,101260.78
2023-02-12T12:42:17.877Z,101259.13
2023-02-12T12:44:05.165Z,101258.41
2023-02-12T12:45:52.219Z,101264.34
2023-02-12T12:48:02.260Z,101263.59
2023-02-12T12:49:55.300Z,101261.69
2023-02-12T12:51:49.276Z,101259.84
2023-02-12T12:54:02.141Z,101273.63
2023-02-12T12:56:03.938Z,101266.88
2023-02-12T12:57:58.261Z,101272.84
2023-02-12T12:59:43.794Z,101265.13
2023-02-12T13:01:34.126Z,101263.19
2023-02-12T13:03:32.210Z,101267.47
2023-02-12T13:05:41.833Z,101277.00
2023-02-12T13:07:43.501Z,101265.75
2023-02-12T13:09:55.108Z,101276.09
2023-02-12T13:11:46.088Z,101282.81
2023-02-12T13:13:36.113Z,101277.72
2023-02-12T13:15:29.562Z,101275.75
2023-02-12T13:17:10.314Z,101269.59
2023-02-12T13:18:47.985Z,101284.22
2023-02-12T13:20:56.618Z,101291.34
2023-02-12T13:22:36.591Z,101295.56
2023-02-12T13:26:08.777Z,101296.47
2023-02-12T13:27:42.807Z,101296.38
2023-02-12T13:29:43.733Z,101295.56
2023-02-12T13:31:32.503Z,101295.63
2023-02-12T13:33:08.576Z,101300.00
2023-02-12T13:34:42.310Z,101303.31
2023-02-12T13:36:15.653Z,101303.34
2023-02-12T13:37:50.743Z,101315.28
2023-02-12T13:39:36.532Z,101311.75
2023-02-12T13:41:10.495Z,101309.09
2023-02-12T13:43:07.948Z,101309.94
2023-02-12T13:45:27.977Z,101315.91
2023-02-12T13:47:39.686Z,101318.41
2023-02-12T13:49:22.036Z,101321.00
2023-02-12T13:51:05.641Z,101320.03
2023-02-12T13:52:45.225Z,101327.69
2023-02-12T13:54:30.139Z,101328.41
2023-02-12T13:56:06.306Z,101331.72
2023-02-12T13:57:38.378Z,101340.19
2023-02-12T13:59:35.212Z,101347.53
2023-02-12T14:01:42.279Z,101343.16
2023-02-12T14:03:15.190Z,101336.09
2023-02-12T14:04:56.940Z,101346.38
2023-02-12T14:06:35.327Z,101350.69
2023-02-12T14:08:08.402Z,101355.66
2023-02-12T14:09:42.657Z,101355.78
2023-02-12T14:11:17.836Z,101359.25
2023-02-12T14:12:50.460Z,101359.97
2023-02-12T14:14:29.279Z,101363.22
2023-02-12T14:16:20.577Z,101363.25
2023-02-12T14:17:55.407Z,101371.25
2023-02-12T14:19:40.868Z,101374.63
2023-02-12T14:21:12.983Z,101380.09
2023-02-12T14:22:45.030Z,101381.69
2023-02-12T14:24:39.022Z,101381.91
2023-02-12T14:26:14.628Z,101385.78
2023-02-12T14:27:49.919Z,101387.53
2023-02-12T14:29:22.789Z,101382.41
2023-02-12T14:31:20.093Z,101390.19
2023-02-12T14:59:25.875Z,101426.56
2023-02-12T15:01:00.268Z,101425.81
2023-02-12T15:02:35.542Z,101436.81
2023-02-12T15:04:20.697Z,101422.06
2023-02-12T15:06:03.642Z,101428.94
2023-02-12T15:07:45.418Z,101433.25
2023-02-12T15:09:22.569Z,101426.38
2023-02-12T15:11:01.877Z,101432.41
2023-02-12T15:12:39.975Z,101438.47
2023-02-12T15:14:46.477Z,101431.34
2023-02-12T15:16:24.901Z,101437.41
2023-02-12T15:18:20.747Z,101440.75
2023-02-12T15:19:57.692Z,101447.59
2023-02-12T15:21:32.053Z,101446.59
2023-02-12T15:23:34.377Z,101441.56
2023-02-12T15:25:25.834Z,101444.13
2023-02-12T15:27:01.406Z,101450.88
2023-02-12T15:28:37.908Z,101458.59
2023-02-12T15:30:26.229Z,101468.81
2023-02-12T15:32:01.254Z,101475.47
2023-02-12T15:33:35.212Z,101474.63
2023-02-12T15:35:07.794Z,101468.50
2023-02-12T15:36:40.262Z,101479.59
2023-02-12T15:38:23.588Z,101472.81
2023-02-12T15:39:59.566Z,101478.69
2023-02-12T15:41:34.529Z,101477.84
2023-02-12T15:43:07.525Z,101482.88
2023-02-12T15:44:39.732Z,101480.97
2023-02-12T15:46:17.547Z,101487.03
2023-02-12T15:48:00.913Z,101487.03
2023-02-12T15:49:38.381Z,101489.50
2023-02-12T15:51:25.510Z,101495.44
2023-02-12T15:52:57.699Z,101494.34
2023-02-12T15:54:33.344Z,101499.41
2023-02-12T15:56:05.665Z,101501.91
2023-02-12T15:57:37.876Z,101503.53
2023-02-12T15:59:20.726Z,101509.63
2023-02-12T16:00:54.129Z,101510.31
2023-02-12T16:02:29.533Z,101517.16
2023-02-12T16:04:07.743Z,101511.16
2023-02-12T16:05:42.907Z,101512.03
2023-02-12T16:07:15.784Z,101515.28
2023-02-12T16:08:50.622Z,101513.50
2023-02-12T16:10:23.214Z,101513.44
2023-02-12T16:11:57.680Z,101512.59
2023-02-12T16:13:33.137Z,101520.28
2023-02-12T16:15:05.760Z,101519.19
2023-02-12T16:16:46.378Z,101529.53
2023-02-12T16:18:28.159Z,101520.88
2023-02-12T16:20:03.318Z,101525.88
2023-02-12T16:21:37.911Z,101523.22
2023-02-12T16:23:10.064Z,101532.53
2023-02-12T16:24:50.530Z,101536.03
2023-02-12T16:26:26.890Z,101542.78
2023-02-12T16:28:18.720Z,101543.53
2023-02-12T16:29:54.006Z,101552.81
2023-02-12T16:31:39.611Z,101534.47
2023-02-12T16:33:34.326Z,101549.25
2023-02-12T16:35:12.452Z,101555.25
2023-02-12T16:36:47.146Z,101555.09
2023-02-12T16:38:28.337Z,101558.50
2023-02-12T16:40:01.260Z,101565.97
2023-02-12T16:41:34.634Z,101566.72
2023-02-12T16:43:24.568Z,101574.50
2023-02-12T16:44:57.009Z,101567.44
2023-02-12T16:46:35.009Z,101577.84
2023-02-12T16:48:10.794Z,101575.19
2023-02-12T16:49:54.743Z,101580.31
2023-02-12T16:51:33.493Z,101579.44
2023-02-12T16:53:08.674Z,101578.44
2023-02-12T16:54:40.698Z,101579.13
2023-02-12T16:56:18.570Z,101574.81
2023-02-12T16:57:50.704Z,101573.00
2023-02-12T16:59:22.792Z,101572.09
2023-02-12T17:00:57.652Z,101572.91
2023-02-12T17:02:29.988Z,101578.84
2023-02-12T17:04:07.143Z,101584.81
2023-02-12T17:05:41.857Z,101588.03
2023-02-12T17:08:45.675Z,101597.97
2023-02-12T17:10:18.646Z,101596.94
2023-02-12T17:11:50.685Z,101595.94
2023-02-12T17:13:22.755Z,101603.53
2023-02-12T17:14:56.162Z,101601.72
2023-02-12T17:16:31.281Z,101614.47
2023-02-12T17:18:04.662Z,101617.78
2023-02-12T17:19:36.750Z,101620.25
2023-02-12T17:21:19.372Z,101617.72
2023-02-12T17:22:53.860Z,101614.13
2023-02-12T17:24:27.953Z,101625.13
2023-02-12T17:26:00.036Z,101626.66
2023-02-12T17:27:32.433Z,101638.53
2023-02-12T17:29:05.682Z,101633.50
2023-02-12T17:30:37.752Z,101639.44
2023-02-12T17:32:09.948Z,101634.25
2023-02-12T17:33:42.169Z,101639.44
2023-02-12T17:35:14.725Z,101646.19
2023-02-12T17:36:47.062Z,101642.53
2023-02-12T17:38:19.330Z,101642.50
2023-02-12T17:39:51.957Z,101648.41
2023-02-12T17:41:24.806Z,101647.41
2023-02-12T17:42:56.997Z,101645.53
2023-02-12T17:44:29.028Z,101651.53
2023-02-12T17:46:01.432Z,101659.22
2023-02-12T17:47:39.994Z,101653.19
2023-02-12T17:49:12.313Z,101656.56
2023-02-12T17:50:44.434Z,101654.81
2023-02-12T17:52:16.512Z,101654.81
2023-02-12T17:53:48.976Z,101654.69
2023-02-12T17:55:21.131Z,101649.41
2023-02-12T17:56:53.232Z,101654.38
2023-02-12T17:58:25.231Z,101655.19
2023-02-12T17:59:57.239Z,101651.63
2023-02-12T18:01:29.396Z,101658.41
2023-02-12T18:03:01.502Z,101668.56
2023-02-12T18:04:36.106Z,101653.13
2023-02-12T18:06:09.308Z,101666.03
2023-02-12T18:07:41.445Z,101669.31
2023-02-12T18:09:13.445Z,101669.31
2023-02-12T18:12:17.376Z,101666.78
2023-02-12T18:13:53.002Z,101665.06
2023-02-12T18:15:25.551Z,101659.78
2023-02-12T18:16:57.783Z,101653.72
2023-02-12T18:18:29.928Z,101656.28
2023-02-12T18:20:02.279Z,101654.59
2023-02-12T18:21:35.576Z,101657.88
2023-02-12T18:23:08.979Z,101653.53
2023-02-12T18:24:44.483Z,101650.81
2023-02-12T18:26:18.092Z,101656.00
2023-02-12T18:27:50.032Z,101657.81
2023-02-12T18:29:22.225Z,101657.34
2023-02-12T18:30:58.910Z,101661.72
2023-02-12T18:32:31.451Z,101659.72
2023-02-12T18:34:05.786Z,101663.22
2023-02-12T18:35:38.014Z,101662.09
2023-02-12T18:37:12.209Z,101658.69
2023-02-12T18:38:45.706Z,101662.78
2023-02-12T18:40:18.050Z,101655.00
2023-02-12T18:41:50.390Z,101658.41
2023-02-12T18:43:24.670Z,101652.44
2023-02-12T18:44:56.886Z,101654.03
2023-02-12T18:46:30.961Z,101650.66
2023-02-12T18:48:03.079Z,101645.44
2023-02-12T18:49:35.343Z,101653.91
2023-02-12T18:51:09.287Z,101654.78
2023-02-12T18:52:41.403Z,101655.38
2023-02-12T18:54:14.482Z,101657.06
2023-02-12T18:55:46.866Z,101661.16
2023-02-12T18:57:19.331Z,101657.50
2023-02-12T18:58:56.630Z,101668.53
2023-02-12T19:00:28.724Z,101665.91
2023-02-12T19:02:04.333Z,101658.41
2023-02-12T19:03:36.595Z,101658.31
2023-02-12T19:05:10.606Z,101662.63
2023-02-12T19:06:47.069Z,101655.03
2023-02-12T19:08:19.737Z,101657.66
2023-02-12T19:11:25.009Z,101669.63
2023-02-12T19:12:57.327Z,101666.06
2023-02-12T19:14:29.503Z,101668.63
2023-02-12T19:16:07.759Z,101663.69
2023-02-12T19:17:40.181Z,101667.69